Pawnee City, Nebraska
Current Conditions -  °F | °C
As of 5:53 AM on Sunday 25 Jan 2015 (Local Time) from KFNB Reporting Station
Light Rain Light Rain  
Wind Chill: 25°   Ceiling: 1600
Heat Index: 37°   Visibility: 10mi
Dew Point: 31°   Wind: 26mph
Humidity: 79%   Direction: 320°NW
Pressure: 29.7"   Gusts: 36mph
Location:  40.11°N, 96.15°W
Report Text: KFNB 251153Z AUTO 32023G31KT 10SM -RA OVC016 03/M01 A2970 RMK AO2 PK WND 32033/1137 RAB45 SLP059 P0000 60000 70006 T00281006 10078 20028 53014
Loading
Personal Weather Stations






























Interactive Weather Map New forecast layout! Learn more

10-Day Weather Forecast

Advertisements
Track Severe Weather on mobile